松山國際航空站 - ATIS

METAR RCSS 040230Z 08005KT 040V110 9999 FEW006 BKN018 BKN032 19/16 Q1020 NOSIG RMK A3014=

站台狀態:Offline
最後更新:2020-04-04 10:30:02